イカルイト の空港の天気 - METARとTAF

イカルイト空港 ( CYFB / YFB ) - カナダ ヌナブト準州イカルイト
飛行場実況気象(Metar)
観測時間11/27 03:00 EST (11/27 08:00 UTC)
風向・風速東北東 6m/s
視程10km以上
天気現象
全天の4割程度の雲 雲底高度 6100m
気温-14℃
湿度66%
気圧1003.5hPa
METARCYFB 270800Z 06011KT 15SM SCT200 M14/M19 A2962 RMK CI3 SLP035
過去の天気等 Google飛行場航空写真 Wunderground天気予報

過去48時間のMETAR

飛行場予報(TAF)
発表時間: 11/27 00:40 EST (11/27 05:40 UTC)
予報対象時間: 27日1時 EST ~ 28日1時 EST
風向・風速東北東 5m/s
視程10km以上
少しの雲 雲底高度 610m
全天の8割程度の雲 雲底高度 2440m
27日1時 EST ~ 27日7時 EST に一時的に
全天の4割程度の雲 雲底高度 2440m
27日7時 EST から
風向・風速北 5m/s
視程10km以上
全天の4割程度の雲 雲底高度 1220m
全天の8割程度の雲 雲底高度 1830m
27日7時 EST ~ 27日12時 EST に一時的に
視程10km以上
天気現象弱い雪
全天の8割程度の雲 雲底高度 1220m
27日12時 EST から
風向・風速北北西 6m/s
視程10km以上
天気現象弱い雪
全天の4割程度の雲 雲底高度 610m
全天を覆う雲 雲底高度 1220m
27日12時 EST ~ 27日16時 EST に一時的に
視程6440m
天気現象弱い雪
全天の8割程度の雲 雲底高度 610m
27日16時 EST から
風向・風速北北西 6m/s 瞬間風速 11m/s
視程8050m
天気現象弱い雪
全天の4割程度の雲 雲底高度 610m
全天を覆う雲 雲底高度 1220m
27日16時 EST ~ 28日1時 EST に一時的に
視程1210m
天気現象弱い雪 高い地吹雪
全天を覆う雲 鉛直視程 610m
27日23時 EST ~ 28日1時 EST に徐々に
風向・風速北西 10m/s 瞬間風速 15m/s
TAF CYFB 270540Z 2706/2806 06010KT P6SM FEW020 BKN080
TEMPO 2706/2712 SCT080
FM271200 35010KT P6SM SCT040 BKN060
TEMPO 2712/2717 P6SM -SN BKN040
FM271700 34012KT P6SM -SN SCT020 OVC040
TEMPO 2717/2721 4SM -SN BKN020
FM272100 33012G22KT 5SM -SN SCT020 OVC040
TEMPO 2721/2806 3/4SM -SN BLSN VV020
BECMG 2804/2806 32020G30KT RMK NXT FCST BY 271200Z